sensor_id;sensor_type;location;lat;lon;timestamp;P1;durP1;ratioP1;P2;durP2;ratioP2
70549;SDS011;58101;48.658;2.328;2023-04-06T00:00:33;12.10;;;5.10;;
70549;SDS011;58101;48.658;2.328;2023-04-06T00:02:59;10.98;;;4.68;;
70549;SDS011;58101;48.658;2.328;2023-04-06T00:05:25;12.45;;;4.97;;
70549;SDS011;58101;48.658;2.328;2023-04-06T00:07:52;13.40;;;4.93;;
70549;SDS011;58101;48.658;2.328;2023-04-06T00:10:19;12.23;;;4.60;;
70549;SDS011;58101;48.658;2.328;2023-04-06T00:12:45;12.73;;;4.95;;
70549;SDS011;58101;48.658;2.328;2023-04-06T00:15:10;11.98;;;4.60;;
70549;SDS011;58101;48.658;2.328;2023-04-06T00:17:36;12.55;;;5.10;;
70549;SDS011;58101;48.658;2.328;2023-04-06T00:20:02;13.38;;;5.20;;
70549;SDS011;58101;48.658;2.328;2023-04-06T00:22:28;11.07;;;4.70;;
70549;SDS011;58101;48.658;2.328;2023-04-06T00:24:56;12.52;;;4.93;;
70549;SDS011;58101;48.658;2.328;2023-04-06T00:27:22;12.68;;;4.65;;
70549;SDS011;58101;48.658;2.328;2023-04-06T00:29:48;10.75;;;4.45;;
70549;SDS011;58101;48.658;2.328;2023-04-06T00:32:13;12.82;;;5.00;;
70549;SDS011;58101;48.658;2.328;2023-04-06T00:34:39;12.43;;;4.85;;
70549;SDS011;58101;48.658;2.328;2023-04-06T00:37:05;12.45;;;4.80;;
70549;SDS011;58101;48.658;2.328;2023-04-06T00:39:30;11.02;;;4.32;;
70549;SDS011;58101;48.658;2.328;2023-04-06T00:41:56;15.32;;;4.82;;
70549;SDS011;58101;48.658;2.328;2023-04-06T00:44:22;12.43;;;4.60;;
70549;SDS011;58101;48.658;2.328;2023-04-06T00:46:48;13.60;;;4.78;;
70549;SDS011;58101;48.658;2.328;2023-04-06T00:49:14;13.15;;;5.03;;
70549;SDS011;58101;48.658;2.328;2023-04-06T00:51:40;10.98;;;4.20;;
70549;SDS011;58101;48.658;2.328;2023-04-06T00:54:06;12.50;;;4.63;;
70549;SDS011;58101;48.658;2.328;2023-04-06T00:56:31;11.95;;;4.05;;
70549;SDS011;58101;48.658;2.328;2023-04-06T00:58:57;11.32;;;4.30;;
70549;SDS011;58101;48.658;2.328;2023-04-06T01:01:23;12.18;;;4.50;;
70549;SDS011;58101;48.658;2.328;2023-04-06T01:03:49;11.02;;;4.40;;
70549;SDS011;58101;48.658;2.328;2023-04-06T01:06:15;11.30;;;4.15;;
70549;SDS011;58101;48.658;2.328;2023-04-06T01:08:41;10.98;;;4.30;;
70549;SDS011;58101;48.658;2.328;2023-04-06T01:11:07;10.02;;;4.57;;
70549;SDS011;58101;48.658;2.328;2023-04-06T01:13:32;11.38;;;3.72;;
70549;SDS011;58101;48.658;2.328;2023-04-06T01:15:58;10.20;;;4.15;;
70549;SDS011;58101;48.658;2.328;2023-04-06T01:18:28;10.65;;;4.13;;
70549;SDS011;58101;48.658;2.328;2023-04-06T01:20:54;11.65;;;3.85;;
70549;SDS011;58101;48.658;2.328;2023-04-06T01:23:20;9.95;;;3.97;;
70549;SDS011;58101;48.658;2.328;2023-04-06T01:25:46;8.85;;;3.75;;
70549;SDS011;58101;48.658;2.328;2023-04-06T01:28:11;11.10;;;4.55;;
70549;SDS011;58101;48.658;2.328;2023-04-06T01:30:37;9.60;;;4.40;;
70549;SDS011;58101;48.658;2.328;2023-04-06T01:33:03;9.95;;;4.20;;
70549;SDS011;58101;48.658;2.328;2023-04-06T01:35:29;10.25;;;4.22;;
70549;SDS011;58101;48.658;2.328;2023-04-06T01:37:55;12.20;;;4.75;;
70549;SDS011;58101;48.658;2.328;2023-04-06T01:40:21;10.90;;;4.05;;
70549;SDS011;58101;48.658;2.328;2023-04-06T01:42:46;11.32;;;4.47;;
70549;SDS011;58101;48.658;2.328;2023-04-06T01:45:12;11.63;;;4.72;;
70549;SDS011;58101;48.658;2.328;2023-04-06T01:47:38;10.48;;;4.40;;
70549;SDS011;58101;48.658;2.328;2023-04-06T01:50:04;12.27;;;4.30;;
70549;SDS011;58101;48.658;2.328;2023-04-06T01:52:31;10.68;;;4.03;;
70549;SDS011;58101;48.658;2.328;2023-04-06T01:54:58;10.60;;;4.45;;
70549;SDS011;58101;48.658;2.328;2023-04-06T01:57:23;10.25;;;4.43;;
70549;SDS011;58101;48.658;2.328;2023-04-06T01:59:50;11.38;;;4.65;;
70549;SDS011;58101;48.658;2.328;2023-04-06T02:02:16;10.55;;;4.15;;
70549;SDS011;58101;48.658;2.328;2023-04-06T02:04:42;11.73;;;4.40;;
70549;SDS011;58101;48.658;2.328;2023-04-06T02:07:07;10.77;;;4.40;;
70549;SDS011;58101;48.658;2.328;2023-04-06T02:09:33;12.13;;;4.47;;
70549;SDS011;58101;48.658;2.328;2023-04-06T02:12:00;11.23;;;4.43;;
70549;SDS011;58101;48.658;2.328;2023-04-06T02:14:26;11.38;;;4.50;;
70549;SDS011;58101;48.658;2.328;2023-04-06T02:16:52;12.75;;;4.97;;
70549;SDS011;58101;48.658;2.328;2023-04-06T02:19:18;12.30;;;4.45;;
70549;SDS011;58101;48.658;2.328;2023-04-06T02:21:44;11.23;;;4.53;;
70549;SDS011;58101;48.658;2.328;2023-04-06T02:24:09;10.57;;;4.15;;
70549;SDS011;58101;48.658;2.328;2023-04-06T02:26:35;12.25;;;4.50;;
70549;SDS011;58101;48.658;2.328;2023-04-06T02:29:01;13.75;;;4.38;;
70549;SDS011;58101;48.658;2.328;2023-04-06T02:31:27;9.55;;;4.10;;
70549;SDS011;58101;48.658;2.328;2023-04-06T02:33:53;12.68;;;4.40;;
70549;SDS011;58101;48.658;2.328;2023-04-06T02:36:18;11.23;;;4.38;;
70549;SDS011;58101;48.658;2.328;2023-04-06T02:38:44;10.85;;;4.78;;
70549;SDS011;58101;48.658;2.328;2023-04-06T02:41:10;13.57;;;4.20;;
70549;SDS011;58101;48.658;2.328;2023-04-06T02:43:35;10.55;;;4.38;;
70549;SDS011;58101;48.658;2.328;2023-04-06T02:46:01;11.65;;;4.55;;
70549;SDS011;58101;48.658;2.328;2023-04-06T02:48:27;12.60;;;4.15;;
70549;SDS011;58101;48.658;2.328;2023-04-06T02:50:52;11.85;;;4.47;;
70549;SDS011;58101;48.658;2.328;2023-04-06T02:53:18;16.73;;;6.47;;
70549;SDS011;58101;48.658;2.328;2023-04-06T02:55:44;12.25;;;4.80;;
70549;SDS011;58101;48.658;2.328;2023-04-06T02:58:09;11.35;;;4.10;;
70549;SDS011;58101;48.658;2.328;2023-04-06T03:00:35;10.48;;;4.28;;
70549;SDS011;58101;48.658;2.328;2023-04-06T03:03:01;12.93;;;4.43;;
70549;SDS011;58101;48.658;2.328;2023-04-06T03:05:27;10.75;;;4.32;;
70549;SDS011;58101;48.658;2.328;2023-04-06T03:07:53;10.57;;;4.28;;
70549;SDS011;58101;48.658;2.328;2023-04-06T03:10:18;11.52;;;4.35;;
70549;SDS011;58101;48.658;2.328;2023-04-06T03:12:44;11.38;;;4.55;;
70549;SDS011;58101;48.658;2.328;2023-04-06T03:15:10;13.43;;;4.38;;
70549;SDS011;58101;48.658;2.328;2023-04-06T03:17:36;11.88;;;4.78;;
70549;SDS011;58101;48.658;2.328;2023-04-06T03:20:02;10.60;;;4.35;;
70549;SDS011;58101;48.658;2.328;2023-04-06T03:22:28;11.57;;;4.20;;
70549;SDS011;58101;48.658;2.328;2023-04-06T03:24:54;11.65;;;4.25;;
70549;SDS011;58101;48.658;2.328;2023-04-06T03:27:20;11.00;;;4.25;;
70549;SDS011;58101;48.658;2.328;2023-04-06T03:29:45;9.93;;;4.20;;
70549;SDS011;58101;48.658;2.328;2023-04-06T03:32:11;9.27;;;3.70;;
70549;SDS011;58101;48.658;2.328;2023-04-06T03:34:37;10.55;;;4.05;;
70549;SDS011;58101;48.658;2.328;2023-04-06T03:37:03;11.20;;;4.30;;
70549;SDS011;58101;48.658;2.328;2023-04-06T03:39:29;12.75;;;4.40;;
70549;SDS011;58101;48.658;2.328;2023-04-06T03:41:55;12.80;;;4.22;;
70549;SDS011;58101;48.658;2.328;2023-04-06T03:44:21;14.45;;;4.68;;
70549;SDS011;58101;48.658;2.328;2023-04-06T03:46:46;11.68;;;4.20;;
70549;SDS011;58101;48.658;2.328;2023-04-06T03:49:12;11.50;;;4.35;;
70549;SDS011;58101;48.658;2.328;2023-04-06T03:51:37;12.05;;;4.20;;
70549;SDS011;58101;48.658;2.328;2023-04-06T03:54:03;11.93;;;4.63;;
70549;SDS011;58101;48.658;2.328;2023-04-06T03:56:29;12.27;;;4.20;;
70549;SDS011;58101;48.658;2.328;2023-04-06T03:58:55;10.77;;;3.70;;
70549;SDS011;58101;48.658;2.328;2023-04-06T04:01:21;11.82;;;4.25;;
70549;SDS011;58101;48.658;2.328;2023-04-06T04:03:46;11.25;;;3.85;;
70549;SDS011;58101;48.658;2.328;2023-04-06T04:06:12;10.95;;;4.45;;
70549;SDS011;58101;48.658;2.328;2023-04-06T04:08:38;12.50;;;4.38;;
70549;SDS011;58101;48.658;2.328;2023-04-06T04:11:03;12.02;;;4.28;;
70549;SDS011;58101;48.658;2.328;2023-04-06T04:13:29;11.13;;;4.10;;
70549;SDS011;58101;48.658;2.328;2023-04-06T04:15:55;9.52;;;4.15;;
70549;SDS011;58101;48.658;2.328;2023-04-06T04:18:21;10.18;;;4.40;;
70549;SDS011;58101;48.658;2.328;2023-04-06T04:20:46;10.60;;;4.47;;
70549;SDS011;58101;48.658;2.328;2023-04-06T04:23:12;10.60;;;4.40;;
70549;SDS011;58101;48.658;2.328;2023-04-06T04:25:38;11.45;;;4.72;;
70549;SDS011;58101;48.658;2.328;2023-04-06T04:28:03;12.50;;;5.00;;
70549;SDS011;58101;48.658;2.328;2023-04-06T04:30:29;12.52;;;4.47;;
70549;SDS011;58101;48.658;2.328;2023-04-06T04:32:55;12.05;;;4.88;;
70549;SDS011;58101;48.658;2.328;2023-04-06T04:35:21;11.50;;;4.60;;
70549;SDS011;58101;48.658;2.328;2023-04-06T04:37:46;11.13;;;4.70;;
70549;SDS011;58101;48.658;2.328;2023-04-06T04:40:12;12.13;;;4.97;;
70549;SDS011;58101;48.658;2.328;2023-04-06T04:42:38;12.13;;;4.90;;
70549;SDS011;58101;48.658;2.328;2023-04-06T04:45:03;12.10;;;5.20;;
70549;SDS011;58101;48.658;2.328;2023-04-06T04:47:29;10.57;;;4.30;;
70549;SDS011;58101;48.658;2.328;2023-04-06T04:49:55;11.93;;;5.30;;
70549;SDS011;58101;48.658;2.328;2023-04-06T04:52:21;12.00;;;4.72;;
70549;SDS011;58101;48.658;2.328;2023-04-06T04:54:46;12.73;;;5.40;;
70549;SDS011;58101;48.658;2.328;2023-04-06T04:57:12;12.68;;;4.95;;
70549;SDS011;58101;48.658;2.328;2023-04-06T04:59:38;12.23;;;4.82;;
70549;SDS011;58101;48.658;2.328;2023-04-06T05:02:04;11.80;;;5.03;;
70549;SDS011;58101;48.658;2.328;2023-04-06T05:04:29;13.63;;;5.03;;
70549;SDS011;58101;48.658;2.328;2023-04-06T05:07:16;12.15;;;4.93;;
70549;SDS011;58101;48.658;2.328;2023-04-06T05:09:43;11.63;;;5.35;;
70549;SDS011;58101;48.658;2.328;2023-04-06T05:12:09;12.00;;;5.32;;
70549;SDS011;58101;48.658;2.328;2023-04-06T05:14:35;11.18;;;5.03;;
70549;SDS011;58101;48.658;2.328;2023-04-06T05:17:01;11.55;;;5.15;;
70549;SDS011;58101;48.658;2.328;2023-04-06T05:19:29;12.10;;;4.90;;
70549;SDS011;58101;48.658;2.328;2023-04-06T05:21:55;11.38;;;5.18;;
70549;SDS011;58101;48.658;2.328;2023-04-06T05:24:20;14.38;;;5.43;;
70549;SDS011;58101;48.658;2.328;2023-04-06T05:26:46;14.52;;;5.13;;
70549;SDS011;58101;48.658;2.328;2023-04-06T05:29:13;12.45;;;5.18;;
70549;SDS011;58101;48.658;2.328;2023-04-06T05:31:40;14.30;;;5.30;;
70549;SDS011;58101;48.658;2.328;2023-04-06T05:34:05;16.88;;;5.32;;
70549;SDS011;58101;48.658;2.328;2023-04-06T05:36:31;11.40;;;5.25;;
70549;SDS011;58101;48.658;2.328;2023-04-06T05:38:57;13.68;;;5.18;;
70549;SDS011;58101;48.658;2.328;2023-04-06T05:41:23;12.93;;;5.30;;
70549;SDS011;58101;48.658;2.328;2023-04-06T05:43:49;15.60;;;5.72;;
70549;SDS011;58101;48.658;2.328;2023-04-06T05:46:15;12.13;;;5.30;;
70549;SDS011;58101;48.658;2.328;2023-04-06T05:48:41;12.02;;;5.50;;
70549;SDS011;58101;48.658;2.328;2023-04-06T05:51:18;13.73;;;5.93;;
70549;SDS011;58101;48.658;2.328;2023-04-06T05:53:44;13.50;;;5.78;;
70549;SDS011;58101;48.658;2.328;2023-04-06T05:56:10;13.45;;;5.88;;
70549;SDS011;58101;48.658;2.328;2023-04-06T05:58:36;14.35;;;5.60;;
70549;SDS011;58101;48.658;2.328;2023-04-06T06:01:04;14.38;;;6.22;;
70549;SDS011;58101;48.658;2.328;2023-04-06T06:03:30;15.40;;;5.65;;
70549;SDS011;58101;48.658;2.328;2023-04-06T06:06:00;19.65;;;9.25;;
70549;SDS011;58101;48.658;2.328;2023-04-06T06:08:26;17.55;;;8.60;;
70549;SDS011;58101;48.658;2.328;2023-04-06T06:10:52;16.83;;;9.13;;
70549;SDS011;58101;48.658;2.328;2023-04-06T06:13:18;16.88;;;6.47;;
70549;SDS011;58101;48.658;2.328;2023-04-06T06:15:44;12.70;;;5.90;;
70549;SDS011;58101;48.658;2.328;2023-04-06T06:18:10;17.17;;;5.88;;
70549;SDS011;58101;48.658;2.328;2023-04-06T06:20:36;11.55;;;5.55;;
70549;SDS011;58101;48.658;2.328;2023-04-06T06:23:01;12.73;;;5.75;;
70549;SDS011;58101;48.658;2.328;2023-04-06T06:25:28;14.98;;;6.35;;
70549;SDS011;58101;48.658;2.328;2023-04-06T06:27:55;14.98;;;6.05;;
70549;SDS011;58101;48.658;2.328;2023-04-06T06:30:21;14.52;;;6.28;;
70549;SDS011;58101;48.658;2.328;2023-04-06T06:32:47;15.68;;;5.97;;
70549;SDS011;58101;48.658;2.328;2023-04-06T06:35:13;13.65;;;6.50;;
70549;SDS011;58101;48.658;2.328;2023-04-06T06:37:39;14.43;;;6.80;;
70549;SDS011;58101;48.658;2.328;2023-04-06T06:40:04;15.18;;;6.50;;
70549;SDS011;58101;48.658;2.328;2023-04-06T06:42:30;14.23;;;7.20;;
70549;SDS011;58101;48.658;2.328;2023-04-06T06:44:56;16.52;;;7.60;;
70549;SDS011;58101;48.658;2.328;2023-04-06T06:47:22;18.15;;;8.30;;
70549;SDS011;58101;48.658;2.328;2023-04-06T06:49:48;19.02;;;8.63;;
70549;SDS011;58101;48.658;2.328;2023-04-06T06:52:13;18.77;;;8.18;;
70549;SDS011;58101;48.658;2.328;2023-04-06T06:54:39;18.40;;;7.65;;
70549;SDS011;58101;48.658;2.328;2023-04-06T06:57:05;18.27;;;8.00;;
70549;SDS011;58101;48.658;2.328;2023-04-06T06:59:31;16.45;;;7.20;;
70549;SDS011;58101;48.658;2.328;2023-04-06T07:01:56;17.67;;;7.78;;
70549;SDS011;58101;48.658;2.328;2023-04-06T07:04:22;18.17;;;7.43;;
70549;SDS011;58101;48.658;2.328;2023-04-06T07:06:49;18.67;;;7.60;;
70549;SDS011;58101;48.658;2.328;2023-04-06T07:09:16;16.15;;;6.70;;
70549;SDS011;58101;48.658;2.328;2023-04-06T07:11:47;16.48;;;7.43;;
70549;SDS011;58101;48.658;2.328;2023-04-06T07:14:14;15.07;;;7.38;;
70549;SDS011;58101;48.658;2.328;2023-04-06T07:16:40;16.23;;;7.55;;
70549;SDS011;58101;48.658;2.328;2023-04-06T07:19:06;18.17;;;7.65;;
70549;SDS011;58101;48.658;2.328;2023-04-06T07:21:33;18.52;;;8.00;;
70549;SDS011;58101;48.658;2.328;2023-04-06T07:23:58;17.30;;;7.75;;
70549;SDS011;58101;48.658;2.328;2023-04-06T07:26:24;16.80;;;7.95;;
70549;SDS011;58101;48.658;2.328;2023-04-06T07:28:50;17.13;;;8.52;;
70549;SDS011;58101;48.658;2.328;2023-04-06T07:31:15;19.10;;;7.72;;
70549;SDS011;58101;48.658;2.328;2023-04-06T07:33:41;16.42;;;8.23;;
70549;SDS011;58101;48.658;2.328;2023-04-06T07:36:07;19.20;;;8.55;;
70549;SDS011;58101;48.658;2.328;2023-04-06T07:38:32;20.27;;;8.98;;
70549;SDS011;58101;48.658;2.328;2023-04-06T07:40:58;21.90;;;9.07;;
70549;SDS011;58101;48.658;2.328;2023-04-06T07:43:24;18.88;;;8.82;;
70549;SDS011;58101;48.658;2.328;2023-04-06T07:45:50;21.70;;;8.82;;
70549;SDS011;58101;48.658;2.328;2023-04-06T07:48:15;18.95;;;8.20;;
70549;SDS011;58101;48.658;2.328;2023-04-06T07:50:41;19.25;;;8.93;;
70549;SDS011;58101;48.658;2.328;2023-04-06T07:55:55;18.33;;;8.43;;
70549;SDS011;58101;48.658;2.328;2023-04-06T08:01:26;18.50;;;8.75;;
70549;SDS011;58101;48.658;2.328;2023-04-06T08:03:53;18.10;;;8.23;;
70549;SDS011;58101;48.658;2.328;2023-04-06T08:06:20;16.10;;;7.90;;
70549;SDS011;58101;48.658;2.328;2023-04-06T08:08:46;18.38;;;8.57;;
70549;SDS011;58101;48.658;2.328;2023-04-06T08:11:12;17.90;;;8.02;;
70549;SDS011;58101;48.658;2.328;2023-04-06T08:13:37;19.30;;;8.48;;
70549;SDS011;58101;48.658;2.328;2023-04-06T08:16:04;18.45;;;8.27;;
70549;SDS011;58101;48.658;2.328;2023-04-06T08:18:30;18.75;;;8.02;;
70549;SDS011;58101;48.658;2.328;2023-04-06T08:20:56;18.02;;;8.63;;
70549;SDS011;58101;48.658;2.328;2023-04-06T08:23:22;19.63;;;8.52;;
70549;SDS011;58101;48.658;2.328;2023-04-06T08:25:47;16.77;;;8.43;;
70549;SDS011;58101;48.658;2.328;2023-04-06T08:28:16;17.05;;;8.13;;
70549;SDS011;58101;48.658;2.328;2023-04-06T08:30:47;19.15;;;7.88;;
70549;SDS011;58101;48.658;2.328;2023-04-06T08:33:13;16.60;;;7.53;;
70549;SDS011;58101;48.658;2.328;2023-04-06T08:35:39;17.90;;;8.60;;
70549;SDS011;58101;48.658;2.328;2023-04-06T08:38:06;19.63;;;8.68;;
70549;SDS011;58101;48.658;2.328;2023-04-06T08:40:38;20.65;;;8.75;;
70549;SDS011;58101;48.658;2.328;2023-04-06T08:43:06;17.40;;;8.52;;
70549;SDS011;58101;48.658;2.328;2023-04-06T08:45:34;18.83;;;9.55;;
70549;SDS011;58101;48.658;2.328;2023-04-06T08:48:06;19.20;;;8.55;;
70549;SDS011;58101;48.658;2.328;2023-04-06T08:50:46;18.73;;;9.20;;
70549;SDS011;58101;48.658;2.328;2023-04-06T08:53:12;21.02;;;9.93;;
70549;SDS011;58101;48.658;2.328;2023-04-06T08:55:38;20.73;;;8.68;;
70549;SDS011;58101;48.658;2.328;2023-04-06T08:58:05;17.40;;;9.20;;
70549;SDS011;58101;48.658;2.328;2023-04-06T09:00:33;17.60;;;8.05;;
70549;SDS011;58101;48.658;2.328;2023-04-06T09:03:02;18.48;;;8.15;;
70549;SDS011;58101;48.658;2.328;2023-04-06T09:05:30;21.05;;;8.95;;
70549;SDS011;58101;48.658;2.328;2023-04-06T09:07:56;17.70;;;8.57;;
70549;SDS011;58101;48.658;2.328;2023-04-06T09:10:31;18.38;;;8.15;;
70549;SDS011;58101;48.658;2.328;2023-04-06T09:13:19;16.58;;;8.00;;
70549;SDS011;58101;48.658;2.328;2023-04-06T09:15:46;17.08;;;7.75;;
70549;SDS011;58101;48.658;2.328;2023-04-06T09:18:12;16.23;;;7.57;;
70549;SDS011;58101;48.658;2.328;2023-04-06T09:20:37;16.70;;;7.57;;
70549;SDS011;58101;48.658;2.328;2023-04-06T09:23:03;14.48;;;6.60;;
70549;SDS011;58101;48.658;2.328;2023-04-06T09:25:28;16.48;;;7.72;;
70549;SDS011;58101;48.658;2.328;2023-04-06T09:28:03;16.98;;;7.43;;
70549;SDS011;58101;48.658;2.328;2023-04-06T09:30:31;17.63;;;7.65;;
70549;SDS011;58101;48.658;2.328;2023-04-06T09:32:57;15.98;;;7.60;;
70549;SDS011;58101;48.658;2.328;2023-04-06T09:35:24;16.13;;;7.53;;
70549;SDS011;58101;48.658;2.328;2023-04-06T09:37:51;19.13;;;7.88;;
70549;SDS011;58101;48.658;2.328;2023-04-06T09:40:18;16.77;;;7.85;;
70549;SDS011;58101;48.658;2.328;2023-04-06T09:42:47;15.30;;;7.15;;
70549;SDS011;58101;48.658;2.328;2023-04-06T09:45:16;14.70;;;7.25;;
70549;SDS011;58101;48.658;2.328;2023-04-06T09:47:43;15.50;;;7.07;;
70549;SDS011;58101;48.658;2.328;2023-04-06T09:50:11;15.60;;;7.10;;
70549;SDS011;58101;48.658;2.328;2023-04-06T09:52:40;15.52;;;6.75;;
70549;SDS011;58101;48.658;2.328;2023-04-06T09:55:18;14.05;;;6.40;;
70549;SDS011;58101;48.658;2.328;2023-04-06T10:00:32;12.60;;;6.15;;
70549;SDS011;58101;48.658;2.328;2023-04-06T10:03:20;17.48;;;6.85;;
70549;SDS011;58101;48.658;2.328;2023-04-06T10:05:57;16.63;;;7.07;;
70549;SDS011;58101;48.658;2.328;2023-04-06T10:08:27;14.30;;;6.45;;
70549;SDS011;58101;48.658;2.328;2023-04-06T10:10:54;13.18;;;5.80;;
70549;SDS011;58101;48.658;2.328;2023-04-06T10:15:47;15.20;;;6.88;;
70549;SDS011;58101;48.658;2.328;2023-04-06T10:18:13;12.82;;;6.05;;
70549;SDS011;58101;48.658;2.328;2023-04-06T10:26:12;15.00;;;6.25;;
70549;SDS011;58101;48.658;2.328;2023-04-06T10:28:41;14.02;;;6.32;;
70549;SDS011;58101;48.658;2.328;2023-04-06T10:31:08;13.43;;;6.35;;
70549;SDS011;58101;48.658;2.328;2023-04-06T10:33:34;12.93;;;5.55;;
70549;SDS011;58101;48.658;2.328;2023-04-06T10:36:13;12.93;;;5.90;;
70549;SDS011;58101;48.658;2.328;2023-04-06T10:38:40;12.27;;;5.50;;
70549;SDS011;58101;48.658;2.328;2023-04-06T10:41:11;12.77;;;5.78;;
70549;SDS011;58101;48.658;2.328;2023-04-06T10:43:37;12.27;;;5.45;;
70549;SDS011;58101;48.658;2.328;2023-04-06T10:46:05;11.25;;;5.40;;
70549;SDS011;58101;48.658;2.328;2023-04-06T10:51:06;12.68;;;5.72;;
70549;SDS011;58101;48.658;2.328;2023-04-06T10:53:34;12.68;;;5.32;;
70549;SDS011;58101;48.658;2.328;2023-04-06T10:56:00;12.30;;;5.25;;
70549;SDS011;58101;48.658;2.328;2023-04-06T10:58:27;13.35;;;5.53;;
70549;SDS011;58101;48.658;2.328;2023-04-06T11:00:54;11.63;;;5.47;;
70549;SDS011;58101;48.658;2.328;2023-04-06T11:03:22;12.50;;;5.65;;
70549;SDS011;58101;48.658;2.328;2023-04-06T11:05:49;13.73;;;5.32;;
70549;SDS011;58101;48.658;2.328;2023-04-06T11:08:25;11.65;;;5.25;;
70549;SDS011;58101;48.658;2.328;2023-04-06T11:11:09;10.98;;;4.70;;
70549;SDS011;58101;48.658;2.328;2023-04-06T11:21:37;11.30;;;4.22;;
70549;SDS011;58101;48.658;2.328;2023-04-06T11:24:13;10.80;;;4.20;;
70549;SDS011;58101;48.658;2.328;2023-04-06T11:26:46;10.52;;;4.10;;
70549;SDS011;58101;48.658;2.328;2023-04-06T11:29:16;9.95;;;4.40;;
70549;SDS011;58101;48.658;2.328;2023-04-06T11:31:47;9.18;;;4.05;;
70549;SDS011;58101;48.658;2.328;2023-04-06T11:39:51;10.45;;;4.30;;
70549;SDS011;58101;48.658;2.328;2023-04-06T11:42:26;12.98;;;4.72;;
70549;SDS011;58101;48.658;2.328;2023-04-06T11:44:58;11.57;;;4.50;;
70549;SDS011;58101;48.658;2.328;2023-04-06T11:47:27;10.85;;;4.13;;
70549;SDS011;58101;48.658;2.328;2023-04-06T11:52:47;9.80;;;3.78;;
70549;SDS011;58101;48.658;2.328;2023-04-06T11:55:25;9.55;;;3.85;;
70549;SDS011;58101;48.658;2.328;2023-04-06T11:57:51;8.43;;;3.40;;
70549;SDS011;58101;48.658;2.328;2023-04-06T12:00:20;8.55;;;3.17;;
70549;SDS011;58101;48.658;2.328;2023-04-06T12:02:52;9.00;;;3.45;;
70549;SDS011;58101;48.658;2.328;2023-04-06T12:08:19;9.18;;;3.50;;
70549;SDS011;58101;48.658;2.328;2023-04-06T12:10:44;11.85;;;3.10;;
70549;SDS011;58101;48.658;2.328;2023-04-06T12:13:23;7.95;;;3.00;;
70549;SDS011;58101;48.658;2.328;2023-04-06T12:16:01;8.15;;;3.42;;
70549;SDS011;58101;48.658;2.328;2023-04-06T12:18:27;9.35;;;3.15;;
70549;SDS011;58101;48.658;2.328;2023-04-06T12:20:56;8.63;;;3.00;;
70549;SDS011;58101;48.658;2.328;2023-04-06T15:19:32;8.35;;;1.90;;
70549;SDS011;58101;48.658;2.328;2023-04-06T15:27:23;7.07;;;1.40;;
70549;SDS011;58101;48.658;2.328;2023-04-06T15:29:52;7.63;;;1.60;;
70549;SDS011;58101;48.658;2.328;2023-04-06T15:34:44;6.45;;;1.30;;
70549;SDS011;58101;48.658;2.328;2023-04-06T15:37:13;7.65;;;1.67;;
70549;SDS011;58101;48.658;2.328;2023-04-06T15:39:39;7.40;;;1.50;;
70549;SDS011;58101;48.658;2.328;2023-04-06T15:42:05;6.65;;;1.48;;
70549;SDS011;58101;48.658;2.328;2023-04-06T15:44:31;6.88;;;1.40;;
70549;SDS011;58101;48.658;2.328;2023-04-06T15:47:00;7.18;;;1.58;;
70549;SDS011;58101;48.658;2.328;2023-04-06T15:49:26;7.00;;;1.50;;
70549;SDS011;58101;48.658;2.328;2023-04-06T15:51:52;9.13;;;1.40;;
70549;SDS011;58101;48.658;2.328;2023-04-06T15:54:17;7.25;;;1.58;;
70549;SDS011;58101;48.658;2.328;2023-04-06T15:56:47;5.88;;;1.48;;
70549;SDS011;58101;48.658;2.328;2023-04-06T15:59:14;8.55;;;1.75;;
70549;SDS011;58101;48.658;2.328;2023-04-06T16:01:40;7.32;;;1.60;;
70549;SDS011;58101;48.658;2.328;2023-04-06T16:04:06;6.20;;;1.60;;
70549;SDS011;58101;48.658;2.328;2023-04-06T16:08:59;6.22;;;1.88;;
70549;SDS011;58101;48.658;2.328;2023-04-06T16:11:25;6.38;;;1.65;;
70549;SDS011;58101;48.658;2.328;2023-04-06T16:13:51;6.50;;;1.90;;
70549;SDS011;58101;48.658;2.328;2023-04-06T16:16:17;5.85;;;1.95;;
70549;SDS011;58101;48.658;2.328;2023-04-06T16:18:42;7.03;;;2.08;;
70549;SDS011;58101;48.658;2.328;2023-04-06T16:21:14;6.90;;;1.85;;
70549;SDS011;58101;48.658;2.328;2023-04-06T16:23:41;7.80;;;2.75;;
70549;SDS011;58101;48.658;2.328;2023-04-06T16:26:13;9.68;;;3.53;;
70549;SDS011;58101;48.658;2.328;2023-04-06T16:28:41;9.18;;;2.85;;
70549;SDS011;58101;48.658;2.328;2023-04-06T16:31:15;11.88;;;3.65;;
70549;SDS011;58101;48.658;2.328;2023-04-06T16:33:51;8.75;;;3.22;;
70549;SDS011;58101;48.658;2.328;2023-04-06T16:36:25;9.30;;;3.20;;
70549;SDS011;58101;48.658;2.328;2023-04-06T16:38:52;10.48;;;3.55;;
70549;SDS011;58101;48.658;2.328;2023-04-06T16:41:21;11.88;;;5.65;;
70549;SDS011;58101;48.658;2.328;2023-04-06T16:43:48;15.27;;;7.00;;
70549;SDS011;58101;48.658;2.328;2023-04-06T16:46:14;10.05;;;4.00;;
70549;SDS011;58101;48.658;2.328;2023-04-06T16:48:41;9.52;;;3.67;;
70549;SDS011;58101;48.658;2.328;2023-04-06T16:51:07;10.02;;;4.22;;
70549;SDS011;58101;48.658;2.328;2023-04-06T16:53:34;9.25;;;3.50;;
70549;SDS011;58101;48.658;2.328;2023-04-06T16:56:04;11.38;;;5.13;;
70549;SDS011;58101;48.658;2.328;2023-04-06T16:58:31;9.32;;;3.60;;
70549;SDS011;58101;48.658;2.328;2023-04-06T17:00:57;13.38;;;6.22;;
70549;SDS011;58101;48.658;2.328;2023-04-06T17:03:25;10.70;;;5.28;;
70549;SDS011;58101;48.658;2.328;2023-04-06T17:05:51;11.65;;;4.80;;
70549;SDS011;58101;48.658;2.328;2023-04-06T17:08:17;29.05;;;10.45;;
70549;SDS011;58101;48.658;2.328;2023-04-06T17:10:42;11.30;;;4.90;;
70549;SDS011;58101;48.658;2.328;2023-04-06T17:13:08;10.18;;;4.38;;
70549;SDS011;58101;48.658;2.328;2023-04-06T17:15:35;12.90;;;4.80;;
70549;SDS011;58101;48.658;2.328;2023-04-06T17:18:01;11.57;;;5.30;;
70549;SDS011;58101;48.658;2.328;2023-04-06T17:20:27;10.57;;;5.13;;
70549;SDS011;58101;48.658;2.328;2023-04-06T17:22:52;10.35;;;4.78;;
70549;SDS011;58101;48.658;2.328;2023-04-06T17:25:18;10.32;;;3.85;;
70549;SDS011;58101;48.658;2.328;2023-04-06T17:27:45;13.57;;;6.47;;
70549;SDS011;58101;48.658;2.328;2023-04-06T17:30:11;9.23;;;3.90;;
70549;SDS011;58101;48.658;2.328;2023-04-06T17:32:37;11.80;;;5.97;;
70549;SDS011;58101;48.658;2.328;2023-04-06T17:35:05;12.40;;;4.88;;
70549;SDS011;58101;48.658;2.328;2023-04-06T17:37:32;9.88;;;3.70;;
70549;SDS011;58101;48.658;2.328;2023-04-06T17:39:57;11.02;;;4.32;;
70549;SDS011;58101;48.658;2.328;2023-04-06T17:42:23;10.65;;;5.20;;
70549;SDS011;58101;48.658;2.328;2023-04-06T17:44:49;14.45;;;7.85;;
70549;SDS011;58101;48.658;2.328;2023-04-06T17:47:15;15.05;;;7.47;;
70549;SDS011;58101;48.658;2.328;2023-04-06T17:49:41;11.20;;;6.00;;
70549;SDS011;58101;48.658;2.328;2023-04-06T17:52:07;12.15;;;6.07;;
70549;SDS011;58101;48.658;2.328;2023-04-06T17:54:33;12.70;;;5.85;;
70549;SDS011;58101;48.658;2.328;2023-04-06T17:57:00;9.95;;;4.13;;
70549;SDS011;58101;48.658;2.328;2023-04-06T17:59:26;9.07;;;3.03;;
70549;SDS011;58101;48.658;2.328;2023-04-06T18:01:53;11.68;;;4.47;;
70549;SDS011;58101;48.658;2.328;2023-04-06T18:04:20;9.32;;;4.30;;
70549;SDS011;58101;48.658;2.328;2023-04-06T18:06:46;9.80;;;3.42;;
70549;SDS011;58101;48.658;2.328;2023-04-06T18:09:13;8.32;;;3.35;;
70549;SDS011;58101;48.658;2.328;2023-04-06T18:17:36;10.25;;;3.70;;
70549;SDS011;58101;48.658;2.328;2023-04-06T18:20:02;9.85;;;4.10;;
70549;SDS011;58101;48.658;2.328;2023-04-06T18:22:28;13.02;;;4.53;;
70549;SDS011;58101;48.658;2.328;2023-04-06T18:24:56;11.52;;;4.00;;